Bushnell, Utah
Current Conditions -  °F | °C
As of 2:15 PM on Monday 22 Dec 2014 (Local Time) from KBMC Reporting Station
Scattered Clouds Scattered Clouds  
Wind Chill: 36°   Ceiling: Unl
Heat Index: 43°   Visibility: 10mi
Dew Point: 31°   Wind: 15mph
Humidity: 61%   Direction: 350°N
Pressure: 29.99"   Gusts: NA
Location:  41.4833°N, 112.095°W
Report Text: KBMC 222115Z AUTO 35013KT 10SM SCT035 SCT050 06/M01 A2999 RMK AO1 T00631007
Loading
Personal Weather Stations






























Interactive Weather Map New forecast layout! Learn more

10-Day Weather Forecast

Advertisements
Track Severe Weather on mobile